KLAW/LAW METAR and TAF weather

Enter ICAO airport designator
Station Type Date Time Source
KLAW METAR 2021/05/14 06:53 UTC NOAA

KLAW 140653Z AUTO 11003KT 10SM CLR 12/10 A3023 RMK AO2 SLP230 T01220100


Station Type Date Time Source
KLAW Decoded METAR 2021/05/14 06:53 UTC NOAA

LAWTON - FORT SILL REGIONAL, OK, United States (KLAW) 34-34N 98-25W 337M
May 14, 2021 - 02:53 AM EDT / 2021.05.14 0653 UTC
Wind: from the ESE (110 degrees) at 3 MPH (3 KT):0
Visibility: 10 mile(s):0
Sky conditions: clear
Temperature: 54.0 F (12.2 C)
Dew Point: 50.0 F (10.0 C)
Relative Humidity: 86%
Pressure (altimeter): 30.23 in. Hg (1023 hPa)
ob: KLAW 140653Z AUTO 11003KT 10SM CLR 12/10 A3023 RMK AO2 SLP230 T01220100
cycle: 7

Station Type Date Time Source
KLAW TAF 2021/05/14 06:22 UTC NOAA

TAF KLAW 140520Z 1406/1506 15008KT P6SM FEW150
FM141500 17014G22KT P6SM SCT045 SCT250
FM150000 14013KT P6SM BKN250

Example: see airport list